hwlogo.jpg (8581 bytes)
Home Your Weather Products Services Weather On Your Site Contact
HW Version Logo
Weather Info
Your Weather (Options)
Canadian Weather
International Weather
Enter your " Place, State", US Zip Code or ICAO:  
Forecast Information Radar Information
Pembroke, Ontario, Canada  Lat: 45.95N, Lon: 77.3W
ICAO Used: CYWA
Current Conditions
Updated: 2:00 AM EST MON FEB 19 2018
Sun & Moon Information
Clear
Clear
Temp: -1°C
Humidity: 63%
Wind Speed: SE 8 MPH
Barometer: 1023 mb
Dewpoint: -7°C
Heat Index: -1°C
Wind Chill: -5°C
Civil Twilight: 6:37 AM EST Moon Phase:
Waxing Crescent Moon
Sunrise: 7:07 AM EST
Sunset: 5:38 PM EST
Civil Twilight: 6:08 PM EST
Forecast for Pembroke, ON:
(Forecast based on TAF for )
0133 AM EST MON FEB 19 2018
  
OVERNIGHT MORNING AFTERNOON
Mostly
Cloudy
Mostly
Cloudy
Overcast
ZoneCast:
Dated: 0133 AM EST MON FEB 19 2018
Overnight...Becoming mostly cloudy.

Morning...Mostly cloudy. Turning clear with winds from the southeast at 8 mph. Turning overcast winds variable in direction at 3 mph.

Afternoon...Overcast winds variable in direction at 3 mph.

Original Encoded TAF:
Dated: 0133 AM EST MON FEB 19 2018
2018/02/19 06:33
TAF CYWA 190530Z 1906/1918 12006KT P6SM OVC090 
      BECMG 1906/1908 BKN160 
     FM191000 12007KT P6SM SKC 
     FM191600 VRB03KT P6SM OVC080 
      RMK FCST BASED ON AUTO OBS. NXT FCST BY 191200Z